sensor_id;sensor_type;location;lat;lon;timestamp;P1;durP1;ratioP1;P2;durP2;ratioP2
33858;SDS011;20156;47.486;12.074;2022-11-20T00:01:12;10.67;;;8.60;;
33858;SDS011;20156;47.486;12.074;2022-11-20T00:03:39;12.20;;;8.50;;
33858;SDS011;20156;47.486;12.074;2022-11-20T00:06:08;12.67;;;9.70;;
33858;SDS011;20156;47.486;12.074;2022-11-20T00:08:36;9.17;;;7.00;;
33858;SDS011;20156;47.486;12.074;2022-11-20T00:13:31;7.30;;;6.13;;
33858;SDS011;20156;47.486;12.074;2022-11-20T00:15:58;8.07;;;6.00;;
33858;SDS011;20156;47.486;12.074;2022-11-20T00:18:28;7.77;;;5.87;;
33858;SDS011;20156;47.486;12.074;2022-11-20T00:20:53;8.43;;;6.57;;
33858;SDS011;20156;47.486;12.074;2022-11-20T00:23:25;8.40;;;5.83;;
33858;SDS011;20156;47.486;12.074;2022-11-20T00:25:51;7.73;;;6.03;;
33858;SDS011;20156;47.486;12.074;2022-11-20T00:28:16;7.57;;;6.40;;
33858;SDS011;20156;47.486;12.074;2022-11-20T00:30:41;8.00;;;7.17;;
33858;SDS011;20156;47.486;12.074;2022-11-20T00:33:07;7.50;;;6.20;;
33858;SDS011;20156;47.486;12.074;2022-11-20T00:35:32;8.23;;;6.60;;
33858;SDS011;20156;47.486;12.074;2022-11-20T00:37:58;8.87;;;6.30;;
33858;SDS011;20156;47.486;12.074;2022-11-20T00:40:23;11.43;;;7.60;;
33858;SDS011;20156;47.486;12.074;2022-11-20T00:42:48;10.27;;;8.10;;
33858;SDS011;20156;47.486;12.074;2022-11-20T00:45:14;10.10;;;7.57;;
33858;SDS011;20156;47.486;12.074;2022-11-20T00:47:39;10.10;;;7.77;;
33858;SDS011;20156;47.486;12.074;2022-11-20T00:50:05;9.07;;;7.03;;
33858;SDS011;20156;47.486;12.074;2022-11-20T00:52:30;8.80;;;7.00;;
33858;SDS011;20156;47.486;12.074;2022-11-20T00:54:56;8.10;;;6.43;;
33858;SDS011;20156;47.486;12.074;2022-11-20T00:57:21;7.77;;;6.77;;
33858;SDS011;20156;47.486;12.074;2022-11-20T00:59:46;9.63;;;7.50;;
33858;SDS011;20156;47.486;12.074;2022-11-20T01:02:12;8.93;;;7.07;;
33858;SDS011;20156;47.486;12.074;2022-11-20T01:04:37;7.53;;;6.17;;
33858;SDS011;20156;47.486;12.074;2022-11-20T01:07:03;8.07;;;6.10;;
33858;SDS011;20156;47.486;12.074;2022-11-20T01:09:28;8.27;;;6.50;;
33858;SDS011;20156;47.486;12.074;2022-11-20T01:11:53;7.33;;;6.20;;
33858;SDS011;20156;47.486;12.074;2022-11-20T01:14:19;7.67;;;6.23;;
33858;SDS011;20156;47.486;12.074;2022-11-20T01:16:49;8.90;;;6.00;;
33858;SDS011;20156;47.486;12.074;2022-11-20T01:19:16;7.57;;;6.23;;
33858;SDS011;20156;47.486;12.074;2022-11-20T01:21:45;6.33;;;5.27;;
33858;SDS011;20156;47.486;12.074;2022-11-20T01:24:13;6.03;;;5.20;;
33858;SDS011;20156;47.486;12.074;2022-11-20T01:26:41;5.87;;;5.27;;
33858;SDS011;20156;47.486;12.074;2022-11-20T01:29:09;6.43;;;5.33;;
33858;SDS011;20156;47.486;12.074;2022-11-20T01:31:38;6.07;;;5.47;;
33858;SDS011;20156;47.486;12.074;2022-11-20T01:34:05;7.17;;;5.07;;
33858;SDS011;20156;47.486;12.074;2022-11-20T01:36:34;6.43;;;4.90;;
33858;SDS011;20156;47.486;12.074;2022-11-20T01:39:03;5.07;;;4.23;;
33858;SDS011;20156;47.486;12.074;2022-11-20T01:41:31;5.97;;;5.00;;
33858;SDS011;20156;47.486;12.074;2022-11-20T01:44:17;6.50;;;5.40;;
33858;SDS011;20156;47.486;12.074;2022-11-20T01:46:50;7.07;;;5.53;;
33858;SDS011;20156;47.486;12.074;2022-11-20T01:52:01;9.33;;;5.77;;
33858;SDS011;20156;47.486;12.074;2022-11-20T01:54:35;6.57;;;4.93;;
33858;SDS011;20156;47.486;12.074;2022-11-20T01:57:04;6.93;;;5.87;;
33858;SDS011;20156;47.486;12.074;2022-11-20T01:59:34;6.83;;;4.80;;
33858;SDS011;20156;47.486;12.074;2022-11-20T02:02:06;5.30;;;4.10;;
33858;SDS011;20156;47.486;12.074;2022-11-20T02:04:31;7.27;;;5.27;;
33858;SDS011;20156;47.486;12.074;2022-11-20T02:07:00;5.30;;;4.70;;
33858;SDS011;20156;47.486;12.074;2022-11-20T02:09:27;6.30;;;4.63;;
33858;SDS011;20156;47.486;12.074;2022-11-20T02:11:53;4.67;;;4.27;;
33858;SDS011;20156;47.486;12.074;2022-11-20T02:14:20;6.63;;;5.33;;
33858;SDS011;20156;47.486;12.074;2022-11-20T02:16:47;5.50;;;5.00;;
33858;SDS011;20156;47.486;12.074;2022-11-20T02:19:27;6.73;;;4.40;;
33858;SDS011;20156;47.486;12.074;2022-11-20T02:21:58;5.47;;;4.70;;
33858;SDS011;20156;47.486;12.074;2022-11-20T02:24:29;5.63;;;4.60;;
33858;SDS011;20156;47.486;12.074;2022-11-20T02:29:24;6.90;;;4.70;;
33858;SDS011;20156;47.486;12.074;2022-11-20T02:31:53;6.50;;;4.07;;
33858;SDS011;20156;47.486;12.074;2022-11-20T02:34:20;7.00;;;4.90;;
33858;SDS011;20156;47.486;12.074;2022-11-20T02:36:45;5.07;;;4.57;;
33858;SDS011;20156;47.486;12.074;2022-11-20T02:39:12;5.73;;;4.20;;
33858;SDS011;20156;47.486;12.074;2022-11-20T02:41:38;9.27;;;5.17;;
33858;SDS011;20156;47.486;12.074;2022-11-20T02:44:04;7.43;;;5.30;;
33858;SDS011;20156;47.486;12.074;2022-11-20T02:46:31;5.60;;;4.70;;
33858;SDS011;20156;47.486;12.074;2022-11-20T02:48:57;6.20;;;5.33;;
33858;SDS011;20156;47.486;12.074;2022-11-20T02:51:23;6.37;;;5.57;;
33858;SDS011;20156;47.486;12.074;2022-11-20T02:53:48;6.67;;;5.40;;
33858;SDS011;20156;47.486;12.074;2022-11-20T02:56:14;5.60;;;5.00;;
33858;SDS011;20156;47.486;12.074;2022-11-20T02:58:40;7.33;;;5.50;;
33858;SDS011;20156;47.486;12.074;2022-11-20T03:01:05;7.43;;;5.53;;
33858;SDS011;20156;47.486;12.074;2022-11-20T03:03:31;5.97;;;5.07;;
33858;SDS011;20156;47.486;12.074;2022-11-20T03:05:58;8.03;;;5.80;;
33858;SDS011;20156;47.486;12.074;2022-11-20T03:08:24;7.60;;;5.47;;
33858;SDS011;20156;47.486;12.074;2022-11-20T03:10:49;6.90;;;5.80;;
33858;SDS011;20156;47.486;12.074;2022-11-20T03:13:15;9.77;;;6.10;;
33858;SDS011;20156;47.486;12.074;2022-11-20T03:15:40;6.70;;;5.70;;
33858;SDS011;20156;47.486;12.074;2022-11-20T03:18:05;6.30;;;5.60;;
33858;SDS011;20156;47.486;12.074;2022-11-20T03:20:32;8.27;;;5.70;;
33858;SDS011;20156;47.486;12.074;2022-11-20T03:22:57;6.67;;;4.97;;
33858;SDS011;20156;47.486;12.074;2022-11-20T03:25:23;5.80;;;5.17;;
33858;SDS011;20156;47.486;12.074;2022-11-20T03:27:48;6.17;;;5.37;;
33858;SDS011;20156;47.486;12.074;2022-11-20T03:30:14;8.17;;;5.60;;
33858;SDS011;20156;47.486;12.074;2022-11-20T03:32:40;8.30;;;5.93;;
33858;SDS011;20156;47.486;12.074;2022-11-20T03:35:05;7.27;;;5.40;;
33858;SDS011;20156;47.486;12.074;2022-11-20T03:37:31;6.70;;;5.80;;
33858;SDS011;20156;47.486;12.074;2022-11-20T03:39:57;7.20;;;6.20;;
33858;SDS011;20156;47.486;12.074;2022-11-20T03:42:22;6.70;;;5.53;;
33858;SDS011;20156;47.486;12.074;2022-11-20T03:45:06;7.43;;;5.40;;
33858;SDS011;20156;47.486;12.074;2022-11-20T03:47:32;6.30;;;5.53;;
33858;SDS011;20156;47.486;12.074;2022-11-20T03:49:57;6.23;;;5.63;;
33858;SDS011;20156;47.486;12.074;2022-11-20T03:52:23;6.80;;;5.53;;
33858;SDS011;20156;47.486;12.074;2022-11-20T03:54:48;7.20;;;5.77;;
33858;SDS011;20156;47.486;12.074;2022-11-20T03:57:14;8.90;;;6.40;;
33858;SDS011;20156;47.486;12.074;2022-11-20T03:59:39;7.23;;;5.70;;
33858;SDS011;20156;47.486;12.074;2022-11-20T04:02:04;6.47;;;5.87;;
33858;SDS011;20156;47.486;12.074;2022-11-20T04:04:30;6.87;;;6.03;;
33858;SDS011;20156;47.486;12.074;2022-11-20T04:06:55;9.97;;;6.40;;
33858;SDS011;20156;47.486;12.074;2022-11-20T04:09:21;7.33;;;5.73;;
33858;SDS011;20156;47.486;12.074;2022-11-20T04:11:46;6.87;;;5.80;;
33858;SDS011;20156;47.486;12.074;2022-11-20T04:14:12;6.40;;;5.80;;
33858;SDS011;20156;47.486;12.074;2022-11-20T04:16:40;7.93;;;6.90;;
33858;SDS011;20156;47.486;12.074;2022-11-20T04:19:06;10.00;;;7.87;;
33858;SDS011;20156;47.486;12.074;2022-11-20T04:21:35;7.50;;;6.20;;
33858;SDS011;20156;47.486;12.074;2022-11-20T04:24:00;9.73;;;7.43;;
33858;SDS011;20156;47.486;12.074;2022-11-20T04:26:27;9.30;;;7.43;;
33858;SDS011;20156;47.486;12.074;2022-11-20T04:28:53;8.87;;;7.17;;
33858;SDS011;20156;47.486;12.074;2022-11-20T04:31:24;9.83;;;7.47;;
33858;SDS011;20156;47.486;12.074;2022-11-20T04:33:52;7.97;;;6.97;;
33858;SDS011;20156;47.486;12.074;2022-11-20T04:36:21;8.20;;;7.13;;
33858;SDS011;20156;47.486;12.074;2022-11-20T04:38:52;10.60;;;7.27;;
33858;SDS011;20156;47.486;12.074;2022-11-20T04:41:20;10.33;;;6.43;;
33858;SDS011;20156;47.486;12.074;2022-11-20T04:43:49;8.97;;;7.30;;
33858;SDS011;20156;47.486;12.074;2022-11-20T04:46:16;10.30;;;6.73;;
33858;SDS011;20156;47.486;12.074;2022-11-20T04:48:42;10.87;;;7.60;;
33858;SDS011;20156;47.486;12.074;2022-11-20T04:51:07;12.13;;;8.03;;
33858;SDS011;20156;47.486;12.074;2022-11-20T04:53:33;12.77;;;10.67;;
33858;SDS011;20156;47.486;12.074;2022-11-20T04:55:59;9.67;;;8.57;;
33858;SDS011;20156;47.486;12.074;2022-11-20T04:58:29;13.30;;;9.20;;
33858;SDS011;20156;47.486;12.074;2022-11-20T05:01:00;10.63;;;8.40;;
33858;SDS011;20156;47.486;12.074;2022-11-20T05:03:30;8.37;;;7.53;;
33858;SDS011;20156;47.486;12.074;2022-11-20T05:05:56;9.33;;;7.90;;
33858;SDS011;20156;47.486;12.074;2022-11-20T05:08:25;9.43;;;7.43;;
33858;SDS011;20156;47.486;12.074;2022-11-20T05:10:50;8.77;;;7.03;;
33858;SDS011;20156;47.486;12.074;2022-11-20T05:13:16;8.33;;;6.70;;
33858;SDS011;20156;47.486;12.074;2022-11-20T05:15:41;10.03;;;7.90;;
33858;SDS011;20156;47.486;12.074;2022-11-20T05:18:07;9.37;;;7.97;;
33858;SDS011;20156;47.486;12.074;2022-11-20T05:20:32;13.03;;;8.87;;
33858;SDS011;20156;47.486;12.074;2022-11-20T05:22:58;7.60;;;6.80;;
33858;SDS011;20156;47.486;12.074;2022-11-20T05:25:23;7.03;;;6.13;;
33858;SDS011;20156;47.486;12.074;2022-11-20T05:27:49;9.23;;;6.23;;
33858;SDS011;20156;47.486;12.074;2022-11-20T05:30:14;8.40;;;6.27;;
33858;SDS011;20156;47.486;12.074;2022-11-20T05:32:40;9.37;;;6.70;;
33858;SDS011;20156;47.486;12.074;2022-11-20T05:35:05;8.97;;;7.33;;
33858;SDS011;20156;47.486;12.074;2022-11-20T05:37:31;12.43;;;8.13;;
33858;SDS011;20156;47.486;12.074;2022-11-20T05:39:57;9.87;;;7.50;;
33858;SDS011;20156;47.486;12.074;2022-11-20T05:42:22;8.97;;;7.47;;
33858;SDS011;20156;47.486;12.074;2022-11-20T05:45:00;9.57;;;7.60;;
33858;SDS011;20156;47.486;12.074;2022-11-20T05:47:28;9.93;;;8.63;;
33858;SDS011;20156;47.486;12.074;2022-11-20T05:49:57;8.80;;;6.77;;
33858;SDS011;20156;47.486;12.074;2022-11-20T05:52:22;10.37;;;7.40;;
33858;SDS011;20156;47.486;12.074;2022-11-20T05:54:48;8.90;;;6.83;;
33858;SDS011;20156;47.486;12.074;2022-11-20T05:57:13;8.37;;;7.10;;
33858;SDS011;20156;47.486;12.074;2022-11-20T05:59:39;7.00;;;6.30;;
33858;SDS011;20156;47.486;12.074;2022-11-20T06:02:04;8.30;;;6.50;;
33858;SDS011;20156;47.486;12.074;2022-11-20T06:04:29;7.80;;;6.30;;
33858;SDS011;20156;47.486;12.074;2022-11-20T06:06:55;8.73;;;7.57;;
33858;SDS011;20156;47.486;12.074;2022-11-20T06:09:20;8.27;;;7.00;;
33858;SDS011;20156;47.486;12.074;2022-11-20T06:11:46;6.47;;;5.53;;
33858;SDS011;20156;47.486;12.074;2022-11-20T06:14:11;9.13;;;7.33;;
33858;SDS011;20156;47.486;12.074;2022-11-20T06:16:36;7.77;;;6.43;;
33858;SDS011;20156;47.486;12.074;2022-11-20T06:19:02;7.60;;;6.57;;
33858;SDS011;20156;47.486;12.074;2022-11-20T06:21:29;6.80;;;5.43;;
33858;SDS011;20156;47.486;12.074;2022-11-20T06:23:54;6.63;;;5.93;;
33858;SDS011;20156;47.486;12.074;2022-11-20T06:26:21;7.47;;;6.07;;
33858;SDS011;20156;47.486;12.074;2022-11-20T06:28:48;9.80;;;7.37;;
33858;SDS011;20156;47.486;12.074;2022-11-20T06:31:14;10.30;;;7.03;;
33858;SDS011;20156;47.486;12.074;2022-11-20T06:33:42;8.00;;;6.57;;
33858;SDS011;20156;47.486;12.074;2022-11-20T06:36:09;11.73;;;9.73;;
33858;SDS011;20156;47.486;12.074;2022-11-20T06:38:36;10.27;;;8.50;;
33858;SDS011;20156;47.486;12.074;2022-11-20T06:41:02;9.50;;;8.50;;
33858;SDS011;20156;47.486;12.074;2022-11-20T06:43:29;12.53;;;9.70;;
33858;SDS011;20156;47.486;12.074;2022-11-20T06:45:55;11.07;;;9.37;;
33858;SDS011;20156;47.486;12.074;2022-11-20T06:48:22;12.43;;;9.90;;
33858;SDS011;20156;47.486;12.074;2022-11-20T06:50:48;8.77;;;7.23;;
33858;SDS011;20156;47.486;12.074;2022-11-20T06:53:14;10.30;;;8.00;;
33858;SDS011;20156;47.486;12.074;2022-11-20T06:55:46;8.33;;;7.53;;
33858;SDS011;20156;47.486;12.074;2022-11-20T06:58:13;11.73;;;8.37;;
33858;SDS011;20156;47.486;12.074;2022-11-20T07:00:39;9.73;;;8.17;;
33858;SDS011;20156;47.486;12.074;2022-11-20T07:03:05;8.63;;;7.73;;
33858;SDS011;20156;47.486;12.074;2022-11-20T07:05:33;10.83;;;7.70;;
33858;SDS011;20156;47.486;12.074;2022-11-20T07:07:59;8.63;;;7.27;;
33858;SDS011;20156;47.486;12.074;2022-11-20T07:10:25;7.97;;;6.73;;
33858;SDS011;20156;47.486;12.074;2022-11-20T07:12:51;10.97;;;9.17;;
33858;SDS011;20156;47.486;12.074;2022-11-20T07:15:18;13.67;;;10.57;;
33858;SDS011;20156;47.486;12.074;2022-11-20T07:17:45;10.00;;;8.83;;
33858;SDS011;20156;47.486;12.074;2022-11-20T07:20:10;10.20;;;8.93;;
33858;SDS011;20156;47.486;12.074;2022-11-20T07:22:36;13.20;;;8.63;;
33858;SDS011;20156;47.486;12.074;2022-11-20T07:25:02;9.83;;;8.67;;
33858;SDS011;20156;47.486;12.074;2022-11-20T07:27:28;12.80;;;9.60;;
33858;SDS011;20156;47.486;12.074;2022-11-20T07:29:54;11.17;;;9.97;;
33858;SDS011;20156;47.486;12.074;2022-11-20T07:32:20;12.70;;;10.37;;
33858;SDS011;20156;47.486;12.074;2022-11-20T07:34:46;10.70;;;9.60;;
33858;SDS011;20156;47.486;12.074;2022-11-20T07:37:12;12.93;;;8.70;;
33858;SDS011;20156;47.486;12.074;2022-11-20T07:39:38;9.83;;;8.73;;
33858;SDS011;20156;47.486;12.074;2022-11-20T07:42:03;11.70;;;8.33;;
33858;SDS011;20156;47.486;12.074;2022-11-20T07:44:28;10.60;;;8.20;;
33858;SDS011;20156;47.486;12.074;2022-11-20T07:46:54;11.50;;;8.77;;
33858;SDS011;20156;47.486;12.074;2022-11-20T07:49:19;13.73;;;11.30;;
33858;SDS011;20156;47.486;12.074;2022-11-20T07:51:45;17.00;;;15.30;;
33858;SDS011;20156;47.486;12.074;2022-11-20T07:54:10;14.57;;;12.90;;
33858;SDS011;20156;47.486;12.074;2022-11-20T07:56:35;16.13;;;14.30;;
33858;SDS011;20156;47.486;12.074;2022-11-20T07:59:01;15.87;;;13.30;;
33858;SDS011;20156;47.486;12.074;2022-11-20T08:01:26;17.00;;;13.83;;
33858;SDS011;20156;47.486;12.074;2022-11-20T08:03:51;16.37;;;13.30;;
33858;SDS011;20156;47.486;12.074;2022-11-20T08:06:17;15.80;;;13.30;;
33858;SDS011;20156;47.486;12.074;2022-11-20T08:08:44;20.30;;;15.40;;
33858;SDS011;20156;47.486;12.074;2022-11-20T08:11:09;18.83;;;15.90;;
33858;SDS011;20156;47.486;12.074;2022-11-20T08:13:53;17.63;;;15.80;;
33858;SDS011;20156;47.486;12.074;2022-11-20T08:16:37;32.87;;;29.83;;
33858;SDS011;20156;47.486;12.074;2022-11-20T08:19:11;46.50;;;42.30;;
33858;SDS011;20156;47.486;12.074;2022-11-20T08:21:38;26.60;;;23.83;;
33858;SDS011;20156;47.486;12.074;2022-11-20T08:24:03;18.63;;;16.50;;
33858;SDS011;20156;47.486;12.074;2022-11-20T08:26:29;32.10;;;28.70;;
33858;SDS011;20156;47.486;12.074;2022-11-20T08:28:55;32.70;;;26.97;;
33858;SDS011;20156;47.486;12.074;2022-11-20T08:31:22;22.13;;;19.73;;
33858;SDS011;20156;47.486;12.074;2022-11-20T08:33:49;17.50;;;15.70;;
33858;SDS011;20156;47.486;12.074;2022-11-20T08:36:16;20.13;;;17.67;;
33858;SDS011;20156;47.486;12.074;2022-11-20T08:38:42;27.03;;;24.23;;
33858;SDS011;20156;47.486;12.074;2022-11-20T08:41:07;21.47;;;17.27;;
33858;SDS011;20156;47.486;12.074;2022-11-20T08:43:54;27.70;;;24.97;;
33858;SDS011;20156;47.486;12.074;2022-11-20T08:46:24;21.63;;;19.07;;
33858;SDS011;20156;47.486;12.074;2022-11-20T08:48:51;20.47;;;16.73;;
33858;SDS011;20156;47.486;12.074;2022-11-20T08:51:17;19.33;;;17.40;;
33858;SDS011;20156;47.486;12.074;2022-11-20T08:53:43;19.67;;;17.57;;
33858;SDS011;20156;47.486;12.074;2022-11-20T08:56:09;16.73;;;14.80;;
33858;SDS011;20156;47.486;12.074;2022-11-20T08:58:35;16.70;;;15.00;;
33858;SDS011;20156;47.486;12.074;2022-11-20T09:01:01;17.70;;;14.83;;
33858;SDS011;20156;47.486;12.074;2022-11-20T09:03:26;126.33;;;57.20;;
33858;SDS011;20156;47.486;12.074;2022-11-20T09:06:02;34.20;;;24.73;;
33858;SDS011;20156;47.486;12.074;2022-11-20T09:08:30;18.50;;;15.67;;
33858;SDS011;20156;47.486;12.074;2022-11-20T09:10:57;18.60;;;15.03;;
33858;SDS011;20156;47.486;12.074;2022-11-20T09:13:23;18.90;;;14.47;;
33858;SDS011;20156;47.486;12.074;2022-11-20T09:15:54;34.03;;;20.97;;
33858;SDS011;20156;47.486;12.074;2022-11-20T09:18:21;23.73;;;17.80;;
33858;SDS011;20156;47.486;12.074;2022-11-20T09:20:46;22.23;;;18.13;;
33858;SDS011;20156;47.486;12.074;2022-11-20T09:23:12;18.63;;;15.50;;
33858;SDS011;20156;47.486;12.074;2022-11-20T09:25:37;13.27;;;11.87;;
33858;SDS011;20156;47.486;12.074;2022-11-20T09:28:03;14.70;;;12.53;;
33858;SDS011;20156;47.486;12.074;2022-11-20T09:30:29;12.30;;;11.00;;
33858;SDS011;20156;47.486;12.074;2022-11-20T09:32:55;14.80;;;12.13;;
33858;SDS011;20156;47.486;12.074;2022-11-20T09:35:21;13.77;;;11.07;;
33858;SDS011;20156;47.486;12.074;2022-11-20T09:37:47;13.70;;;11.10;;
33858;SDS011;20156;47.486;12.074;2022-11-20T09:45:44;14.47;;;10.83;;
33858;SDS011;20156;47.486;12.074;2022-11-20T09:56:43;9.68;;;8.30;;
33858;SDS011;20156;47.486;12.074;2022-11-20T09:59:29;10.13;;;8.80;;
33858;SDS011;20156;47.486;12.074;2022-11-20T10:01:56;13.52;;;9.23;;
33858;SDS011;20156;47.486;12.074;2022-11-20T10:04:24;9.88;;;7.80;;
33858;SDS011;20156;47.486;12.074;2022-11-20T10:09:23;8.50;;;7.10;;
33858;SDS011;20156;47.486;12.074;2022-11-20T10:20:00;7.30;;;6.57;;
33858;SDS011;20156;47.486;12.074;2022-11-20T10:25:24;8.63;;;7.72;;
33858;SDS011;20156;47.486;12.074;2022-11-20T10:28:15;11.98;;;8.35;;
33858;SDS011;20156;47.486;12.074;2022-11-20T10:30:53;8.23;;;6.30;;
33858;SDS011;20156;47.486;12.074;2022-11-20T10:33:25;8.65;;;5.97;;
33858;SDS011;20156;47.486;12.074;2022-11-20T10:35:55;8.43;;;6.32;;
33858;SDS011;20156;47.486;12.074;2022-11-20T10:38:43;6.53;;;5.63;;
33858;SDS011;20156;47.486;12.074;2022-11-20T10:41:23;5.40;;;4.90;;
33858;SDS011;20156;47.486;12.074;2022-11-20T10:46:42;5.95;;;5.32;;
33858;SDS011;20156;47.486;12.074;2022-11-20T10:49:18;10.00;;;5.85;;
33858;SDS011;20156;47.486;12.074;2022-11-20T10:51:58;8.48;;;6.22;;
33858;SDS011;20156;47.486;12.074;2022-11-20T10:58:08;6.80;;;5.32;;
33858;SDS011;20156;47.486;12.074;2022-11-20T11:00:38;9.55;;;5.85;;
33858;SDS011;20156;47.486;12.074;2022-11-20T11:03:07;6.82;;;5.18;;
33858;SDS011;20156;47.486;12.074;2022-11-20T11:05:51;6.00;;;5.20;;
33858;SDS011;20156;47.486;12.074;2022-11-20T11:08:22;6.40;;;5.60;;
33858;SDS011;20156;47.486;12.074;2022-11-20T11:11:07;6.57;;;5.25;;
33858;SDS011;20156;47.486;12.074;2022-11-20T11:13:40;6.15;;;4.55;;
33858;SDS011;20156;47.486;12.074;2022-11-20T11:16:05;6.18;;;5.28;;
33858;SDS011;20156;47.486;12.074;2022-11-20T11:18:31;5.80;;;5.20;;
33858;SDS011;20156;47.486;12.074;2022-11-20T11:21:02;6.85;;;5.18;;
33858;SDS011;20156;47.486;12.074;2022-11-20T11:26:05;5.70;;;5.10;;
33858;SDS011;20156;47.486;12.074;2022-11-20T11:28:58;5.38;;;4.88;;
33858;SDS011;20156;47.486;12.074;2022-11-20T11:31:26;5.88;;;4.40;;
33858;SDS011;20156;47.486;12.074;2022-11-20T11:34:12;4.47;;;3.97;;
33858;SDS011;20156;47.486;12.074;2022-11-20T11:36:39;4.50;;;3.15;;
33858;SDS011;20156;47.486;12.074;2022-11-20T11:39:08;4.75;;;4.32;;
33858;SDS011;20156;47.486;12.074;2022-11-20T11:41:39;3.75;;;3.45;;
33858;SDS011;20156;47.486;12.074;2022-11-20T11:44:19;2.60;;;2.28;;
33858;SDS011;20156;47.486;12.074;2022-11-20T11:47:05;4.80;;;2.70;;
33858;SDS011;20156;47.486;12.074;2022-11-20T11:49:36;2.55;;;2.17;;
33858;SDS011;20156;47.486;12.074;2022-11-20T11:52:04;4.82;;;4.35;;
33858;SDS011;20156;47.486;12.074;2022-11-20T11:54:38;2.92;;;2.63;;
33858;SDS011;20156;47.486;12.074;2022-11-20T11:57:10;2.10;;;1.90;;
33858;SDS011;20156;47.486;12.074;2022-11-20T12:05:01;2.95;;;1.80;;
33858;SDS011;20156;47.486;12.074;2022-11-20T12:07:38;2.72;;;2.00;;
33858;SDS011;20156;47.486;12.074;2022-11-20T12:10:13;3.33;;;2.80;;
33858;SDS011;20156;47.486;12.074;2022-11-20T12:12:46;2.83;;;2.00;;
33858;SDS011;20156;47.486;12.074;2022-11-20T12:15:25;4.47;;;2.63;;
33858;SDS011;20156;47.486;12.074;2022-11-20T12:17:54;3.63;;;2.50;;
33858;SDS011;20156;47.486;12.074;2022-11-20T12:20:21;4.22;;;2.28;;
33858;SDS011;20156;47.486;12.074;2022-11-20T12:25:32;2.97;;;2.50;;
33858;SDS011;20156;47.486;12.074;2022-11-20T12:28:07;4.28;;;3.22;;
33858;SDS011;20156;47.486;12.074;2022-11-20T12:30:41;3.35;;;3.05;;
33858;SDS011;20156;47.486;12.074;2022-11-20T12:35:47;4.03;;;3.35;;
33858;SDS011;20156;47.486;12.074;2022-11-20T12:38:29;5.15;;;3.88;;
33858;SDS011;20156;47.486;12.074;2022-11-20T12:45:02;4.35;;;3.80;;
33858;SDS011;20156;47.486;12.074;2022-11-20T12:53:44;4.88;;;4.38;;
33858;SDS011;20156;47.486;12.074;2022-11-20T12:56:37;6.15;;;4.40;;
33858;SDS011;20156;47.486;12.074;2022-11-20T12:59:30;8.98;;;4.30;;
33858;SDS011;20156;47.486;12.074;2022-11-20T13:02:02;4.55;;;3.35;;
33858;SDS011;20156;47.486;12.074;2022-11-20T13:04:55;3.92;;;3.53;;
33858;SDS011;20156;47.486;12.074;2022-11-20T13:07:44;3.53;;;3.22;;
33858;SDS011;20156;47.486;12.074;2022-11-20T13:10:14;3.95;;;3.65;;
33858;SDS011;20156;47.486;12.074;2022-11-20T13:12:51;4.68;;;4.28;;
33858;SDS011;20156;47.486;12.074;2022-11-20T13:15:35;3.95;;;3.55;;
33858;SDS011;20156;47.486;12.074;2022-11-20T13:18:25;3.85;;;3.45;;
33858;SDS011;20156;47.486;12.074;2022-11-20T13:20:51;4.03;;;3.38;;
33858;SDS011;20156;47.486;12.074;2022-11-20T13:23:24;5.35;;;4.25;;
33858;SDS011;20156;47.486;12.074;2022-11-20T13:25:50;3.80;;;3.42;;
33858;SDS011;20156;47.486;12.074;2022-11-20T13:30:50;5.65;;;4.40;;
33858;SDS011;20156;47.486;12.074;2022-11-20T13:33:36;12.75;;;8.93;;
33858;SDS011;20156;47.486;12.074;2022-11-20T13:36:05;9.88;;;5.50;;
33858;SDS011;20156;47.486;12.074;2022-11-20T13:38:54;4.03;;;3.63;;
33858;SDS011;20156;47.486;12.074;2022-11-20T13:41:28;4.72;;;3.38;;
33858;SDS011;20156;47.486;12.074;2022-11-20T13:44:10;5.88;;;4.03;;
33858;SDS011;20156;47.486;12.074;2022-11-20T13:46:45;5.50;;;4.13;;
33858;SDS011;20156;47.486;12.074;2022-11-20T13:49:20;3.38;;;2.75;;
33858;SDS011;20156;47.486;12.074;2022-11-20T13:51:51;3.30;;;3.00;;
33858;SDS011;20156;47.486;12.074;2022-11-20T14:00:19;6.65;;;4.30;;
33858;SDS011;20156;47.486;12.074;2022-11-20T14:03:30;4.60;;;3.30;;
33858;SDS011;20156;47.486;12.074;2022-11-20T14:05:51;4.18;;;3.17;;
33858;SDS011;20156;47.486;12.074;2022-11-20T14:08:33;4.30;;;2.85;;
33858;SDS011;20156;47.486;12.074;2022-11-20T14:11:20;6.65;;;3.10;;
33858;SDS011;20156;47.486;12.074;2022-11-20T14:13:53;3.58;;;3.10;;
33858;SDS011;20156;47.486;12.074;2022-11-20T14:16:37;3.78;;;3.30;;
33858;SDS011;20156;47.486;12.074;2022-11-20T14:21:48;4.30;;;3.40;;
33858;SDS011;20156;47.486;12.074;2022-11-20T14:24:21;3.92;;;2.92;;
33858;SDS011;20156;47.486;12.074;2022-11-20T14:26:49;4.40;;;3.70;;
33858;SDS011;20156;47.486;12.074;2022-11-20T14:29:17;4.40;;;4.00;;
33858;SDS011;20156;47.486;12.074;2022-11-20T14:31:45;4.28;;;3.88;;
33858;SDS011;20156;47.486;12.074;2022-11-20T14:34:17;3.30;;;3.00;;
33858;SDS011;20156;47.486;12.074;2022-11-20T14:36:46;4.18;;;2.90;;
33858;SDS011;20156;47.486;12.074;2022-11-20T14:39:23;4.50;;;3.23;;
33858;SDS011;20156;47.486;12.074;2022-11-20T14:41:57;3.97;;;2.83;;
33858;SDS011;20156;47.486;12.074;2022-11-20T14:44:33;3.97;;;3.43;;
33858;SDS011;20156;47.486;12.074;2022-11-20T14:47:00;5.00;;;4.27;;
33858;SDS011;20156;47.486;12.074;2022-11-20T14:49:29;6.27;;;4.93;;
33858;SDS011;20156;47.486;12.074;2022-11-20T14:52:01;5.43;;;4.63;;
33858;SDS011;20156;47.486;12.074;2022-11-20T14:54:29;5.47;;;4.90;;
33858;SDS011;20156;47.486;12.074;2022-11-20T14:59:26;9.00;;;4.90;;
33858;SDS011;20156;47.486;12.074;2022-11-20T15:01:58;6.07;;;4.77;;
33858;SDS011;20156;47.486;12.074;2022-11-20T15:04:26;7.77;;;4.13;;
33858;SDS011;20156;47.486;12.074;2022-11-20T15:06:58;6.77;;;5.53;;
33858;SDS011;20156;47.486;12.074;2022-11-20T15:09:25;6.70;;;4.70;;
33858;SDS011;20156;47.486;12.074;2022-11-20T15:11:55;5.03;;;4.40;;
33858;SDS011;20156;47.486;12.074;2022-11-20T15:14:21;4.80;;;4.30;;
33858;SDS011;20156;47.486;12.074;2022-11-20T15:16:48;4.33;;;3.93;;
33858;SDS011;20156;47.486;12.074;2022-11-20T15:19:16;4.70;;;4.23;;
33858;SDS011;20156;47.486;12.074;2022-11-20T15:21:47;6.10;;;4.40;;
33858;SDS011;20156;47.486;12.074;2022-11-20T15:24:13;5.57;;;4.40;;
33858;SDS011;20156;47.486;12.074;2022-11-20T15:26:39;8.23;;;4.60;;
33858;SDS011;20156;47.486;12.074;2022-11-20T15:29:08;5.87;;;4.80;;
33858;SDS011;20156;47.486;12.074;2022-11-20T15:31:38;11.17;;;9.40;;
33858;SDS011;20156;47.486;12.074;2022-11-20T15:34:10;10.57;;;9.10;;
33858;SDS011;20156;47.486;12.074;2022-11-20T15:36:40;10.17;;;8.47;;
33858;SDS011;20156;47.486;12.074;2022-11-20T15:39:06;7.00;;;5.07;;
33858;SDS011;20156;47.486;12.074;2022-11-20T15:41:36;7.97;;;6.43;;
33858;SDS011;20156;47.486;12.074;2022-11-20T15:44:05;7.63;;;5.43;;
33858;SDS011;20156;47.486;12.074;2022-11-20T15:46:31;6.27;;;5.10;;
33858;SDS011;20156;47.486;12.074;2022-11-20T15:49:03;8.73;;;5.60;;
33858;SDS011;20156;47.486;12.074;2022-11-20T15:51:33;6.10;;;5.30;;
33858;SDS011;20156;47.486;12.074;2022-11-20T15:54:00;6.63;;;5.70;;
33858;SDS011;20156;47.486;12.074;2022-11-20T15:56:27;5.97;;;5.13;;
33858;SDS011;20156;47.486;12.074;2022-11-20T15:58:52;7.80;;;6.43;;